createdAt,value
2022-07-29T00:01:51.359Z,22.48
2022-07-29T00:04:18.384Z,22.41
2022-07-29T00:06:52.263Z,22.34
2022-07-29T00:09:18.999Z,22.31
2022-07-29T00:12:06.317Z,22.27
2022-07-29T00:14:36.637Z,22.24
2022-07-29T00:17:10.328Z,22.24
2022-07-29T00:19:45.596Z,22.34
2022-07-29T00:22:19.664Z,22.26
2022-07-29T00:24:48.629Z,22.25
2022-07-29T00:27:22.472Z,22.24
2022-07-29T00:29:49.150Z,22.15
2022-07-29T00:32:16.078Z,22.06
2022-07-29T00:35:08.458Z,21.98
2022-07-29T00:37:35.189Z,21.89
2022-07-29T00:40:08.270Z,21.95
2022-07-29T00:42:53.282Z,21.95
2022-07-29T00:45:20.542Z,21.94
2022-07-29T00:47:54.438Z,21.89
2022-07-29T00:50:21.185Z,21.86
2022-07-29T00:52:55.251Z,21.96
2022-07-29T00:55:22.234Z,21.98
2022-07-29T00:57:56.286Z,21.90
2022-07-29T01:00:25.565Z,21.83
2022-07-29T01:02:59.260Z,21.81
2022-07-29T01:05:48.065Z,21.76
2022-07-29T01:08:23.259Z,21.75
2022-07-29T01:11:10.256Z,21.80
2022-07-29T01:13:38.292Z,21.76
2022-07-29T01:16:25.443Z,21.69
2022-07-29T01:18:58.314Z,21.61
2022-07-29T01:21:46.426Z,21.65
2022-07-29T01:24:13.527Z,21.70
2022-07-29T01:26:50.257Z,21.69
2022-07-29T01:29:18.946Z,21.69
2022-07-29T01:32:27.508Z,21.75
2022-07-29T01:35:07.315Z,21.76
2022-07-29T01:37:44.306Z,21.79
2022-07-29T01:40:23.108Z,21.69
2022-07-29T01:43:02.276Z,21.62
2022-07-29T01:45:41.766Z,21.54
2022-07-29T01:48:24.264Z,21.58
2022-07-29T01:51:05.787Z,21.54
2022-07-29T01:53:51.265Z,21.48
2022-07-29T01:56:21.089Z,21.47
2022-07-29T01:58:57.422Z,21.38
2022-07-29T02:01:26.678Z,21.27
2022-07-29T02:04:02.256Z,21.21
2022-07-29T02:06:31.565Z,21.10
2022-07-29T02:09:06.268Z,21.06
2022-07-29T02:11:55.252Z,21.08
2022-07-29T02:14:31.429Z,21.09
2022-07-29T02:17:07.235Z,21.13
2022-07-29T02:19:35.293Z,21.17
2022-07-29T02:22:09.262Z,21.19
2022-07-29T02:24:45.250Z,21.16
2022-07-29T02:27:14.892Z,21.13
2022-07-29T02:29:49.280Z,21.09
2022-07-29T02:32:18.297Z,21.05
2022-07-29T02:34:47.347Z,21.08
2022-07-29T02:37:21.266Z,21.09
2022-07-29T02:39:49.871Z,21.04
2022-07-29T02:42:25.234Z,21.05
2022-07-29T02:44:59.458Z,21.05
2022-07-29T02:47:41.838Z,21.03
2022-07-29T02:50:16.317Z,21.03
2022-07-29T02:52:46.641Z,21.06
2022-07-29T02:55:32.236Z,21.08
2022-07-29T02:58:30.532Z,21.10
2022-07-29T03:01:21.108Z,21.11
2022-07-29T03:03:57.244Z,21.11
2022-07-29T03:06:38.027Z,21.25
2022-07-29T03:09:15.221Z,21.28
2022-07-29T03:11:51.047Z,21.24
2022-07-29T03:14:32.220Z,21.20
2022-07-29T03:16:59.732Z,21.19
2022-07-29T03:19:34.254Z,21.16
2022-07-29T03:22:01.354Z,21.17
2022-07-29T03:24:39.236Z,21.16
2022-07-29T03:27:06.545Z,21.27
2022-07-29T03:29:34.649Z,21.34
2022-07-29T03:32:13.238Z,21.30
2022-07-29T03:34:40.865Z,21.23
2022-07-29T03:37:14.410Z,21.19
2022-07-29T03:39:43.998Z,21.11
2022-07-29T03:42:21.246Z,21.18
2022-07-29T03:44:50.778Z,21.12
2022-07-29T03:47:49.736Z,21.08
2022-07-29T03:50:19.237Z,21.01
2022-07-29T03:52:53.395Z,20.95
2022-07-29T03:55:20.498Z,20.87
2022-07-29T03:57:55.306Z,20.82
2022-07-29T04:00:24.022Z,20.77
2022-07-29T04:02:51.125Z,20.77
2022-07-29T04:05:25.248Z,20.76
2022-07-29T04:07:58.219Z,20.78
2022-07-29T04:10:32.172Z,20.82
2022-07-29T04:13:07.475Z,20.90
2022-07-29T04:15:40.302Z,20.91
2022-07-29T04:18:07.095Z,20.88
2022-07-29T04:20:40.248Z,20.85
2022-07-29T04:23:06.898Z,20.83
2022-07-29T04:25:40.292Z,20.83
2022-07-29T04:28:08.078Z,20.82
2022-07-29T04:30:43.483Z,20.83
2022-07-29T04:33:17.240Z,20.82
2022-07-29T04:35:52.460Z,20.83
2022-07-29T04:38:21.841Z,20.90
2022-07-29T04:40:49.773Z,20.90
2022-07-29T04:43:23.505Z,20.97
2022-07-29T04:45:50.711Z,20.97
2022-07-29T04:48:28.750Z,20.98
2022-07-29T04:50:56.091Z,20.92
2022-07-29T04:53:29.208Z,20.95
2022-07-29T04:55:56.342Z,20.94
2022-07-29T04:58:31.248Z,20.89
2022-07-29T05:00:58.085Z,20.91
2022-07-29T05:03:24.720Z,20.90
2022-07-29T05:05:58.406Z,20.89
2022-07-29T05:08:32.292Z,20.95
2022-07-29T05:10:59.383Z,20.92
2022-07-29T05:13:52.393Z,20.95
2022-07-29T05:16:19.117Z,20.95
2022-07-29T05:18:52.217Z,21.02
2022-07-29T05:21:25.237Z,21.03
2022-07-29T05:23:58.295Z,21.07
2022-07-29T05:26:24.980Z,21.09
2022-07-29T05:28:58.227Z,21.07
2022-07-29T05:31:31.299Z,21.13
2022-07-29T05:33:58.394Z,21.11
2022-07-29T05:36:25.154Z,21.09
2022-07-29T05:38:59.431Z,21.12
2022-07-29T05:41:27.160Z,21.14
2022-07-29T05:43:53.896Z,21.17
2022-07-29T05:46:27.440Z,21.17
2022-07-29T05:48:54.716Z,21.23
2022-07-29T05:51:28.268Z,21.27
2022-07-29T05:53:55.031Z,21.29
2022-07-29T05:56:28.210Z,21.28
2022-07-29T05:58:55.146Z,21.27
2022-07-29T06:01:22.083Z,21.29
2022-07-29T06:03:55.241Z,21.26
2022-07-29T06:06:22.609Z,21.28
2022-07-29T06:08:49.537Z,21.30
2022-07-29T06:11:23.193Z,21.35
2022-07-29T06:13:56.312Z,21.38
2022-07-29T06:16:30.129Z,21.43
2022-07-29T06:18:57.265Z,21.45
2022-07-29T06:21:30.202Z,21.46
2022-07-29T06:23:56.977Z,21.52
2022-07-29T06:26:30.348Z,21.55
2022-07-29T06:29:05.222Z,21.54
2022-07-29T06:31:32.298Z,21.54
2022-07-29T06:33:59.158Z,21.56
2022-07-29T06:36:32.206Z,21.61
2022-07-29T06:39:05.214Z,21.64
2022-07-29T06:41:39.210Z,21.69
2022-07-29T06:44:12.390Z,21.68
2022-07-29T06:46:45.197Z,21.72
2022-07-29T06:49:13.436Z,21.75
2022-07-29T06:51:47.374Z,21.76
2022-07-29T06:54:21.220Z,21.78
2022-07-29T06:56:55.206Z,21.82
2022-07-29T06:59:35.125Z,21.85
2022-07-29T07:02:09.227Z,21.88
2022-07-29T07:04:42.290Z,21.89
2022-07-29T07:07:15.226Z,21.92
2022-07-29T07:09:41.953Z,21.92
2022-07-29T07:12:15.241Z,21.90
2022-07-29T07:14:49.209Z,21.88
2022-07-29T07:17:22.216Z,21.88
2022-07-29T07:19:55.730Z,21.89
2022-07-29T07:22:29.398Z,21.88
2022-07-29T07:24:56.140Z,21.90
2022-07-29T07:27:23.041Z,21.93
2022-07-29T07:29:56.189Z,21.93
2022-07-29T07:32:29.255Z,21.94
2022-07-29T07:34:55.884Z,21.94
2022-07-29T07:37:29.213Z,21.95
2022-07-29T07:39:56.138Z,21.93
2022-07-29T07:42:23.181Z,21.90
2022-07-29T07:45:12.643Z,21.94
2022-07-29T07:47:40.876Z,21.90
2022-07-29T07:50:18.896Z,21.89
2022-07-29T07:52:59.358Z,21.89
2022-07-29T07:55:53.430Z,21.90
2022-07-29T07:58:27.260Z,21.90
2022-07-29T08:00:54.042Z,21.91
2022-07-29T08:03:20.788Z,21.92
2022-07-29T08:05:55.199Z,21.94
2022-07-29T08:08:22.077Z,21.95
2022-07-29T08:11:06.792Z,21.95
2022-07-29T08:13:49.217Z,21.96
2022-07-29T08:16:22.248Z,21.96
2022-07-29T08:18:49.288Z,21.97
2022-07-29T08:21:23.249Z,21.97
2022-07-29T08:24:22.196Z,21.98
2022-07-29T08:26:55.219Z,22.02
2022-07-29T08:29:21.899Z,22.04
2022-07-29T08:31:55.548Z,22.08
2022-07-29T08:34:27.701Z,22.05
2022-07-29T08:37:01.526Z,22.10
2022-07-29T08:39:28.413Z,22.09
2022-07-29T08:42:02.460Z,22.06
2022-07-29T08:44:30.767Z,22.10
2022-07-29T08:47:04.497Z,22.08
2022-07-29T08:49:31.921Z,22.11
2022-07-29T08:52:06.189Z,22.12
2022-07-29T08:54:50.174Z,22.15
2022-07-29T08:57:17.864Z,22.23
2022-07-29T08:59:54.179Z,22.25
2022-07-29T09:02:21.426Z,22.28
2022-07-29T09:04:55.183Z,22.33
2022-07-29T09:07:22.465Z,22.36
2022-07-29T09:09:56.189Z,22.38
2022-07-29T09:12:32.742Z,22.40
2022-07-29T09:15:15.185Z,22.43
2022-07-29T09:17:47.682Z,22.45
2022-07-29T09:20:27.176Z,22.52
2022-07-29T09:23:04.184Z,22.57
2022-07-29T09:25:46.202Z,22.63
2022-07-29T09:30:53.185Z,22.79
2022-07-29T09:33:28.179Z,22.89
2022-07-29T09:36:04.792Z,23.01
2022-07-29T09:38:40.179Z,23.11
2022-07-29T09:41:09.011Z,23.17
2022-07-29T09:43:42.195Z,23.24
2022-07-29T09:46:13.846Z,23.31
2022-07-29T09:48:40.664Z,23.30
2022-07-29T09:51:38.582Z,23.35
2022-07-29T09:54:31.199Z,23.43
2022-07-29T09:56:58.177Z,23.44
2022-07-29T09:59:27.341Z,23.45
2022-07-29T10:02:01.197Z,23.43
2022-07-29T10:04:46.164Z,23.49
2022-07-29T10:07:12.877Z,23.53
2022-07-29T10:09:47.172Z,23.57
2022-07-29T10:12:34.158Z,23.68
2022-07-29T10:15:02.948Z,23.77
2022-07-29T10:17:36.183Z,23.85
2022-07-29T10:20:16.569Z,23.94
2022-07-29T10:22:53.425Z,24.00
2022-07-29T10:25:21.936Z,24.07
2022-07-29T10:27:56.205Z,24.20
2022-07-29T10:30:25.233Z,24.22
2022-07-29T10:33:38.172Z,24.19
2022-07-29T10:36:25.450Z,24.28
2022-07-29T10:39:22.447Z,24.39
2022-07-29T10:42:03.653Z,24.43
2022-07-29T10:44:31.501Z,24.41
2022-07-29T10:47:05.308Z,24.48
2022-07-29T10:49:32.147Z,24.50
2022-07-29T10:52:17.201Z,24.65
2022-07-29T10:54:47.355Z,24.73
2022-07-29T10:57:21.172Z,24.87
2022-07-29T10:59:50.583Z,24.97
2022-07-29T11:05:40.889Z,25.07
2022-07-29T11:08:31.170Z,25.17
2022-07-29T11:11:51.380Z,25.30
2022-07-29T11:15:01.492Z,25.49
2022-07-29T11:17:47.072Z,25.65
2022-07-29T11:20:46.034Z,25.83
2022-07-29T11:23:39.157Z,25.85
2022-07-29T11:26:23.150Z,25.87
2022-07-29T11:28:57.219Z,25.86
2022-07-29T11:31:44.185Z,25.95
2022-07-29T11:34:44.191Z,26.00
2022-07-29T11:37:17.603Z,26.08
2022-07-29T11:40:06.195Z,26.15
2022-07-29T11:42:35.530Z,26.18
2022-07-29T11:45:42.916Z,26.16
2022-07-29T11:48:29.302Z,26.25
2022-07-29T11:51:00.473Z,26.28
2022-07-29T11:53:29.111Z,26.35
2022-07-29T11:56:07.164Z,26.45
2022-07-29T11:58:33.952Z,26.49
2022-07-29T12:01:08.191Z,26.54
2022-07-29T12:03:43.688Z,26.56
2022-07-29T12:06:22.458Z,26.67
2022-07-29T12:08:49.235Z,26.65
2022-07-29T12:11:30.505Z,26.64
2022-07-29T12:14:03.902Z,26.68
2022-07-29T12:16:46.255Z,26.63
2022-07-29T12:19:13.170Z,26.70
2022-07-29T12:21:56.898Z,26.89
2022-07-29T12:24:26.796Z,26.90
2022-07-29T12:27:05.162Z,27.01
2022-07-29T12:29:38.176Z,27.02
2022-07-29T12:32:15.079Z,27.00
2022-07-29T12:34:46.997Z,27.09
2022-07-29T12:37:20.186Z,27.21
2022-07-29T12:39:59.093Z,27.30
2022-07-29T12:42:32.180Z,27.35
2022-07-29T12:45:05.177Z,27.57
2022-07-29T12:47:31.912Z,27.67
2022-07-29T12:50:26.581Z,27.70
2022-07-29T12:52:53.369Z,27.93
2022-07-29T12:56:03.524Z,28.22
2022-07-29T12:58:41.501Z,28.41
2022-07-29T13:01:17.746Z,28.58
2022-07-29T13:03:56.679Z,28.66
2022-07-29T13:06:49.645Z,28.77
2022-07-29T13:09:31.194Z,28.72
2022-07-29T13:12:16.306Z,28.68
2022-07-29T13:15:02.178Z,28.57
2022-07-29T13:17:35.214Z,28.66
2022-07-29T13:20:13.488Z,28.98
2022-07-29T13:22:47.257Z,29.19
2022-07-29T13:25:14.175Z,29.21
2022-07-29T13:27:41.682Z,29.43
2022-07-29T13:30:17.178Z,29.43
2022-07-29T13:32:50.143Z,29.36
2022-07-29T13:35:17.677Z,29.22
2022-07-29T13:37:51.997Z,29.11
2022-07-29T13:40:18.964Z,29.13
2022-07-29T13:42:52.349Z,29.21
2022-07-29T13:45:19.800Z,29.09
2022-07-29T13:47:53.181Z,29.31
2022-07-29T13:50:26.153Z,29.21
2022-07-29T13:52:52.912Z,29.06
2022-07-29T13:55:27.186Z,28.87
2022-07-29T13:57:53.840Z,28.89
2022-07-29T14:00:27.182Z,29.01
2022-07-29T14:03:00.165Z,28.90
2022-07-29T14:05:27.021Z,28.81
2022-07-29T14:07:53.680Z,28.77
2022-07-29T14:10:27.173Z,28.70
2022-07-29T14:13:24.635Z,28.65
2022-07-29T14:15:59.167Z,28.55
2022-07-29T14:18:25.925Z,28.49
2022-07-29T14:20:59.169Z,28.46
2022-07-29T14:23:25.846Z,28.48
2022-07-29T14:26:00.156Z,28.37
2022-07-29T14:28:36.087Z,28.31
2022-07-29T14:31:05.881Z,28.06
2022-07-29T14:33:32.629Z,28.17
2022-07-29T14:36:06.176Z,28.23
2022-07-29T14:38:39.163Z,28.24
2022-07-29T14:41:06.732Z,28.26
2022-07-29T14:43:40.155Z,28.25
2022-07-29T14:46:08.639Z,28.26
2022-07-29T14:48:42.275Z,28.26
2022-07-29T14:51:08.992Z,28.17
2022-07-29T14:53:42.601Z,28.16
2022-07-29T14:56:35.014Z,27.96
2022-07-29T14:59:03.143Z,28.06
2022-07-29T15:01:36.201Z,28.08
2022-07-29T15:04:03.301Z,28.09
2022-07-29T15:06:36.171Z,28.14
2022-07-29T15:09:03.067Z,28.08
2022-07-29T15:11:38.734Z,28.03
2022-07-29T15:14:26.158Z,28.08
2022-07-29T15:16:59.185Z,28.02
2022-07-29T15:19:27.187Z,27.99
2022-07-29T15:22:00.194Z,28.01
2022-07-29T15:24:27.071Z,28.02
2022-07-29T15:26:54.622Z,28.04
2022-07-29T15:29:28.155Z,27.96
2022-07-29T15:31:54.995Z,27.78
2022-07-29T15:34:30.366Z,27.72
2022-07-29T15:36:57.111Z,27.78
2022-07-29T15:39:23.933Z,27.81
2022-07-29T15:41:58.249Z,27.73
2022-07-29T15:44:25.090Z,27.77
2022-07-29T15:47:16.379Z,27.80
2022-07-29T15:49:48.213Z,27.80
2022-07-29T15:52:27.318Z,27.84
2022-07-29T15:54:57.946Z,27.79
2022-07-29T15:57:32.160Z,27.79
2022-07-29T16:00:05.185Z,27.79
2022-07-29T16:02:38.168Z,27.74
2022-07-29T16:05:12.183Z,27.60
2022-07-29T16:07:45.230Z,27.61
2022-07-29T16:10:12.044Z,27.62
2022-07-29T16:12:52.178Z,27.57
2022-07-29T16:15:25.273Z,27.57
2022-07-29T16:17:51.904Z,27.60
2022-07-29T16:20:25.168Z,27.66
2022-07-29T16:22:58.156Z,27.71
2022-07-29T16:25:43.884Z,27.76
2022-07-29T16:28:18.152Z,27.80
2022-07-29T16:30:51.171Z,27.78
2022-07-29T16:33:24.159Z,27.81
2022-07-29T16:35:58.248Z,27.83
2022-07-29T16:38:24.950Z,27.84
2022-07-29T16:40:58.157Z,27.88
2022-07-29T16:43:31.178Z,27.86
2022-07-29T16:45:57.936Z,27.86
2022-07-29T16:48:24.826Z,27.69
2022-07-29T16:50:58.195Z,27.63
2022-07-29T16:53:29.701Z,27.62
2022-07-29T16:55:56.754Z,27.64
2022-07-29T16:58:30.161Z,27.58
2022-07-29T17:00:56.901Z,27.46
2022-07-29T17:03:30.166Z,27.34
2022-07-29T17:05:57.395Z,27.26
2022-07-29T17:08:45.156Z,27.26
2022-07-29T17:11:18.322Z,27.26
2022-07-29T17:14:02.372Z,27.25
2022-07-29T17:16:36.359Z,27.19
2022-07-29T17:19:10.171Z,27.15
2022-07-29T17:21:48.902Z,27.11
2022-07-29T17:24:23.157Z,27.04
2022-07-29T17:26:58.466Z,27.00
2022-07-29T17:29:25.462Z,26.93
2022-07-29T17:31:59.228Z,26.85
2022-07-29T17:34:26.269Z,26.78
2022-07-29T17:36:59.633Z,26.71
2022-07-29T17:39:26.538Z,26.66
2022-07-29T17:42:00.197Z,26.60
2022-07-29T17:44:36.303Z,26.54
2022-07-29T17:47:04.261Z,26.48
2022-07-29T17:49:38.158Z,26.44
2022-07-29T17:52:05.284Z,26.37
2022-07-29T17:54:38.144Z,26.32
2022-07-29T17:57:04.929Z,26.25
2022-07-29T17:59:38.162Z,26.17
2022-07-29T18:02:04.978Z,26.11
2022-07-29T18:04:38.170Z,26.03
2022-07-29T18:07:04.895Z,25.96
2022-07-29T18:09:38.180Z,25.89
2022-07-29T18:12:12.146Z,25.83
2022-07-29T18:14:52.338Z,25.75
2022-07-29T18:17:48.387Z,25.72
2022-07-29T18:20:13.325Z,25.65
2022-07-29T18:22:46.341Z,25.61
2022-07-29T18:25:13.151Z,25.56
2022-07-29T18:27:39.889Z,25.52
2022-07-29T18:30:14.158Z,25.44
2022-07-29T18:33:18.235Z,25.45
2022-07-29T18:35:41.198Z,25.43
2022-07-29T18:38:14.157Z,25.41
2022-07-29T18:40:42.160Z,25.35
2022-07-29T18:43:16.171Z,25.32
2022-07-29T18:45:49.138Z,25.30
2022-07-29T18:48:17.274Z,25.24
2022-07-29T18:50:50.139Z,25.20
2022-07-29T18:53:24.151Z,25.15
2022-07-29T18:55:50.917Z,25.13
2022-07-29T18:58:24.162Z,25.10
2022-07-29T19:00:57.327Z,25.09
2022-07-29T19:03:24.138Z,25.04
2022-07-29T19:05:58.143Z,25.00
2022-07-29T19:08:24.894Z,24.98
2022-07-29T19:10:58.154Z,24.96
2022-07-29T19:13:45.189Z,24.93
2022-07-29T19:16:20.203Z,24.90
2022-07-29T19:18:54.138Z,24.86
2022-07-29T19:21:29.191Z,24.83
2022-07-29T19:24:06.881Z,24.78
2022-07-29T19:26:36.703Z,24.77
2022-07-29T19:29:11.160Z,24.77
2022-07-29T19:31:37.941Z,24.75
2022-07-29T19:34:04.801Z,24.75
2022-07-29T19:36:39.216Z,24.72
2022-07-29T19:39:06.176Z,24.71
2022-07-29T19:41:41.152Z,24.70
2022-07-29T19:44:07.932Z,24.69
2022-07-29T19:46:41.208Z,24.68
2022-07-29T19:49:14.173Z,24.68
2022-07-29T19:51:48.300Z,24.67
2022-07-29T19:54:18.162Z,24.66
2022-07-29T19:56:52.126Z,24.77
2022-07-29T19:59:19.397Z,24.77
2022-07-29T20:01:58.201Z,24.79
2022-07-29T20:04:25.229Z,24.47
2022-07-29T20:07:02.485Z,24.39
2022-07-29T20:09:29.249Z,24.34
2022-07-29T20:12:02.158Z,24.18
2022-07-29T20:14:49.133Z,23.99
2022-07-29T20:17:23.141Z,23.81
2022-07-29T20:19:51.437Z,23.78
2022-07-29T20:22:21.013Z,23.69
2022-07-29T20:24:55.113Z,23.42
2022-07-29T20:27:21.912Z,23.30
2022-07-29T20:29:55.163Z,22.97
2022-07-29T20:32:21.996Z,22.64
2022-07-29T20:34:55.173Z,22.25
2022-07-29T20:37:21.993Z,21.49
2022-07-29T20:39:50.023Z,20.32
2022-07-29T20:42:23.148Z,19.99
2022-07-29T20:44:51.164Z,19.61
2022-07-29T20:47:24.168Z,19.19
2022-07-29T20:49:50.952Z,19.00
2022-07-29T20:52:28.164Z,18.90
2022-07-29T20:54:54.852Z,18.73
2022-07-29T20:57:38.550Z,18.72
2022-07-29T21:00:14.214Z,18.62
2022-07-29T21:02:48.216Z,18.59
2022-07-29T21:05:15.898Z,18.56
2022-07-29T21:07:42.851Z,18.63
2022-07-29T21:10:16.126Z,18.75
2022-07-29T21:12:42.953Z,18.69
2022-07-29T21:15:20.200Z,18.65
2022-07-29T21:17:47.327Z,18.53
2022-07-29T21:20:27.139Z,18.70
2022-07-29T21:22:56.600Z,18.67
2022-07-29T21:25:31.146Z,18.71
2022-07-29T21:28:16.420Z,18.57
2022-07-29T21:30:50.160Z,18.67
2022-07-29T21:33:17.019Z,18.53
2022-07-29T21:38:37.600Z,18.34
2022-07-29T21:41:12.125Z,18.42
2022-07-29T21:43:41.927Z,18.49
2022-07-29T21:46:16.209Z,18.63
2022-07-29T21:48:44.699Z,18.43
2022-07-29T21:51:18.142Z,18.58
2022-07-29T21:53:44.889Z,18.45
2022-07-29T21:56:19.127Z,18.49
2022-07-29T21:58:45.889Z,18.46
2022-07-29T22:01:19.358Z,18.58
2022-07-29T22:03:46.126Z,18.46
2022-07-29T22:06:18.358Z,18.37
2022-07-29T22:08:52.194Z,18.50
2022-07-29T22:11:25.127Z,18.31
2022-07-29T22:13:58.232Z,18.41
2022-07-29T22:16:31.184Z,18.43
2022-07-29T22:18:57.906Z,18.31
2022-07-29T22:21:31.127Z,18.25
2022-07-29T22:23:58.252Z,18.21
2022-07-29T22:26:32.102Z,18.29
2022-07-29T22:29:05.135Z,18.34
2022-07-29T22:31:31.953Z,18.57
2022-07-29T22:34:05.093Z,18.62
2022-07-29T22:36:38.133Z,18.54
2022-07-29T22:39:11.098Z,18.46
2022-07-29T22:41:42.386Z,18.42
2022-07-29T22:44:16.095Z,18.18
2022-07-29T22:46:49.094Z,18.39
2022-07-29T22:49:16.201Z,18.24
2022-07-29T22:51:43.078Z,18.35
2022-07-29T22:54:16.755Z,18.25
2022-07-29T22:56:43.713Z,18.16
2022-07-29T22:59:17.195Z,18.16
2022-07-29T23:01:44.772Z,17.99
2022-07-29T23:04:18.105Z,17.99
2022-07-29T23:06:44.773Z,18.09
2022-07-29T23:09:18.111Z,18.07
2022-07-29T23:11:45.024Z,17.94
2022-07-29T23:14:32.127Z,17.91
2022-07-29T23:16:59.062Z,17.86
2022-07-29T23:19:32.097Z,17.95
2022-07-29T23:21:58.893Z,17.94
2022-07-29T23:24:32.107Z,18.02
2022-07-29T23:26:59.129Z,17.96
2022-07-29T23:29:36.593Z,17.92
2022-07-29T23:32:03.838Z,17.91
2022-07-29T23:34:30.610Z,17.84
2022-07-29T23:37:04.230Z,17.69
2022-07-29T23:39:31.084Z,17.55
2022-07-29T23:42:04.115Z,17.59
2022-07-29T23:44:30.908Z,17.71
2022-07-29T23:47:04.445Z,17.91
2022-07-29T23:49:31.565Z,18.09
2022-07-29T23:52:05.259Z,18.17
2022-07-29T23:54:31.994Z,18.02
2022-07-29T23:57:05.102Z,18.13
2022-07-29T23:59:31.791Z,17.94
